sensor_id;sensor_type;location;lat;lon;timestamp;pressure;altitude;pressure_sealevel;temperature;humidity
65872;BME280;52653;50.080;21.992;2023-02-17T00:00:11;99651.25;;;0.35;87.26
65872;BME280;52653;50.080;21.992;2023-02-17T00:03:24;99653.16;;;0.31;87.18
65872;BME280;52653;50.080;21.992;2023-02-17T00:06:18;99653.05;;;0.28;87.17
65872;BME280;52653;50.080;21.992;2023-02-17T00:09:14;99650.98;;;0.24;87.31
65872;BME280;52653;50.080;21.992;2023-02-17T00:12:07;99653.26;;;0.20;87.17
65872;BME280;52653;50.080;21.992;2023-02-17T00:14:53;99650.71;;;0.17;87.20
65872;BME280;52653;50.080;21.992;2023-02-17T00:17:46;99650.41;;;0.14;86.99
65872;BME280;52653;50.080;21.992;2023-02-17T00:20:40;99651.23;;;0.09;87.05
65872;BME280;52653;50.080;21.992;2023-02-17T00:23:32;99649.84;;;0.04;86.99
65872;BME280;52653;50.080;21.992;2023-02-17T00:26:24;99649.08;;;-0.02;87.01
65872;BME280;52653;50.080;21.992;2023-02-17T00:29:19;99649.43;;;-0.06;86.93
65872;BME280;52653;50.080;21.992;2023-02-17T00:32:03;99649.80;;;-0.10;86.97
65872;BME280;52653;50.080;21.992;2023-02-17T00:34:56;99648.38;;;-0.15;86.99
65872;BME280;52653;50.080;21.992;2023-02-17T00:37:48;99645.38;;;-0.20;86.90
65872;BME280;52653;50.080;21.992;2023-02-17T00:40:41;99648.42;;;-0.26;86.86
65872;BME280;52653;50.080;21.992;2023-02-17T00:43:35;99649.27;;;-0.30;86.90
65872;BME280;52653;50.080;21.992;2023-02-17T00:46:28;99642.68;;;-0.36;86.99
65872;BME280;52653;50.080;21.992;2023-02-17T00:49:23;99640.96;;;-0.39;87.06
65872;BME280;52653;50.080;21.992;2023-02-17T00:52:16;99639.40;;;-0.43;87.11
65872;BME280;52653;50.080;21.992;2023-02-17T00:55:08;99639.56;;;-0.48;86.99
65872;BME280;52653;50.080;21.992;2023-02-17T00:58:00;99639.17;;;-0.52;87.12
65872;BME280;52653;50.080;21.992;2023-02-17T01:00:55;99634.15;;;-0.57;87.28
65872;BME280;52653;50.080;21.992;2023-02-17T01:03:48;99635.35;;;-0.62;87.20
65872;BME280;52653;50.080;21.992;2023-02-17T01:06:41;99634.65;;;-0.66;87.25
65872;BME280;52653;50.080;21.992;2023-02-17T01:09:34;99633.13;;;-0.69;87.37
65872;BME280;52653;50.080;21.992;2023-02-17T01:12:27;99633.52;;;-0.72;87.41
65872;BME280;52653;50.080;21.992;2023-02-17T01:15:20;99627.55;;;-0.75;87.59
65872;BME280;52653;50.080;21.992;2023-02-17T01:18:12;99627.98;;;-0.76;87.55
65872;BME280;52653;50.080;21.992;2023-02-17T01:21:05;99626.36;;;-0.78;87.65
65872;BME280;52653;50.080;21.992;2023-02-17T01:24:09;99623.88;;;-0.80;87.79
65872;BME280;52653;50.080;21.992;2023-02-17T01:27:02;99621.97;;;-0.80;87.95
65872;BME280;52653;50.080;21.992;2023-02-17T01:29:56;99620.11;;;-0.79;87.98
65872;BME280;52653;50.080;21.992;2023-02-17T01:32:49;99612.26;;;-0.77;88.40
65872;BME280;52653;50.080;21.992;2023-02-17T01:35:35;99612.92;;;-0.75;88.63
65872;BME280;52653;50.080;21.992;2023-02-17T01:38:28;99609.95;;;-0.71;88.85
65872;BME280;52653;50.080;21.992;2023-02-17T01:41:23;99604.79;;;-0.67;89.07
65872;BME280;52653;50.080;21.992;2023-02-17T01:44:19;99601.89;;;-0.63;88.92
65872;BME280;52653;50.080;21.992;2023-02-17T01:47:13;99600.48;;;-0.59;88.98
65872;BME280;52653;50.080;21.992;2023-02-17T01:50:01;99596.87;;;-0.55;89.20
65872;BME280;52653;50.080;21.992;2023-02-17T01:52:55;99598.21;;;-0.51;89.01
65872;BME280;52653;50.080;21.992;2023-02-17T01:55:49;99590.28;;;-0.48;89.11
65872;BME280;52653;50.080;21.992;2023-02-17T01:58:46;99585.59;;;-0.45;89.35
65872;BME280;52653;50.080;21.992;2023-02-17T02:01:42;99577.41;;;-0.42;89.10
65872;BME280;52653;50.080;21.992;2023-02-17T02:04:37;99575.95;;;-0.40;89.17
65872;BME280;52653;50.080;21.992;2023-02-17T02:07:32;99576.97;;;-0.37;89.12
65872;BME280;52653;50.080;21.992;2023-02-17T02:10:26;99575.17;;;-0.34;89.09
65872;BME280;52653;50.080;21.992;2023-02-17T02:13:19;99573.56;;;-0.32;89.03
65872;BME280;52653;50.080;21.992;2023-02-17T02:16:20;99572.79;;;-0.29;89.16
65872;BME280;52653;50.080;21.992;2023-02-17T02:22:42;99563.59;;;-0.23;89.01
65872;BME280;52653;50.080;21.992;2023-02-17T02:32:40;99548.41;;;-0.14;89.14
65872;BME280;52653;50.080;21.992;2023-02-17T02:35:44;99547.59;;;-0.09;89.19
65872;BME280;52653;50.080;21.992;2023-02-17T02:38:43;99550.36;;;-0.04;89.19
65872;BME280;52653;50.080;21.992;2023-02-17T02:41:42;99541.77;;;0.00;89.09
65872;BME280;52653;50.080;21.992;2023-02-17T02:44:35;99544.20;;;0.06;89.11
65872;BME280;52653;50.080;21.992;2023-02-17T02:47:48;99544.58;;;0.11;89.19
65872;BME280;52653;50.080;21.992;2023-02-17T02:50:49;99549.25;;;0.15;89.09
65872;BME280;52653;50.080;21.992;2023-02-17T02:53:53;99549.61;;;0.21;89.04
65872;BME280;52653;50.080;21.992;2023-02-17T02:57:15;99550.85;;;0.25;88.94
65872;BME280;52653;50.080;21.992;2023-02-17T03:00:17;99549.64;;;0.30;88.92
65872;BME280;52653;50.080;21.992;2023-02-17T03:03:19;99543.90;;;0.34;88.73
65872;BME280;52653;50.080;21.992;2023-02-17T03:06:20;99540.96;;;0.38;88.66
65872;BME280;52653;50.080;21.992;2023-02-17T03:09:18;99542.65;;;0.41;88.55
65872;BME280;52653;50.080;21.992;2023-02-17T03:12:10;99541.03;;;0.44;88.42
65872;BME280;52653;50.080;21.992;2023-02-17T03:15:07;99538.87;;;0.46;88.24
65872;BME280;52653;50.080;21.992;2023-02-17T03:18:04;99533.04;;;0.47;88.34
65872;BME280;52653;50.080;21.992;2023-02-17T03:21:01;99530.03;;;0.50;88.18
65872;BME280;52653;50.080;21.992;2023-02-17T03:24:12;99535.65;;;0.52;88.11
65872;BME280;52653;50.080;21.992;2023-02-17T03:27:05;99540.55;;;0.54;87.95
65872;BME280;52653;50.080;21.992;2023-02-17T03:29:58;99542.98;;;0.55;87.92
65872;BME280;52653;50.080;21.992;2023-02-17T03:32:52;99547.52;;;0.56;87.82
65872;BME280;52653;50.080;21.992;2023-02-17T03:35:45;99550.27;;;0.56;87.72
65872;BME280;52653;50.080;21.992;2023-02-17T03:38:38;99553.89;;;0.55;87.64
65872;BME280;52653;50.080;21.992;2023-02-17T03:41:31;99549.42;;;0.56;87.76
65872;BME280;52653;50.080;21.992;2023-02-17T03:44:25;99550.33;;;0.57;87.65
65872;BME280;52653;50.080;21.992;2023-02-17T03:47:18;99549.34;;;0.58;87.56
65872;BME280;52653;50.080;21.992;2023-02-17T03:50:16;99552.85;;;0.61;87.66
65872;BME280;52653;50.080;21.992;2023-02-17T03:53:07;99552.08;;;0.63;87.64
65872;BME280;52653;50.080;21.992;2023-02-17T03:56:00;99549.23;;;0.64;87.55
65872;BME280;52653;50.080;21.992;2023-02-17T03:58:53;99545.48;;;0.66;87.42
65872;BME280;52653;50.080;21.992;2023-02-17T04:01:47;99546.58;;;0.68;87.45
65872;BME280;52653;50.080;21.992;2023-02-17T04:04:40;99542.82;;;0.69;87.48
65872;BME280;52653;50.080;21.992;2023-02-17T04:07:22;99542.34;;;0.70;87.47
65872;BME280;52653;50.080;21.992;2023-02-17T04:10:15;99545.34;;;0.72;87.38
65872;BME280;52653;50.080;21.992;2023-02-17T04:13:08;99540.73;;;0.74;87.35
65872;BME280;52653;50.080;21.992;2023-02-17T04:15:55;99540.07;;;0.74;87.15
65872;BME280;52653;50.080;21.992;2023-02-17T04:18:40;99534.26;;;0.76;87.13
65872;BME280;52653;50.080;21.992;2023-02-17T04:21:32;99529.98;;;0.77;87.14
65872;BME280;52653;50.080;21.992;2023-02-17T04:24:25;99526.21;;;0.77;86.98
65872;BME280;52653;50.080;21.992;2023-02-17T04:27:18;99524.85;;;0.77;86.96
65872;BME280;52653;50.080;21.992;2023-02-17T04:30:13;99519.14;;;0.77;86.88
65872;BME280;52653;50.080;21.992;2023-02-17T04:33:06;99515.44;;;0.76;86.75
65872;BME280;52653;50.080;21.992;2023-02-17T04:35:59;99516.61;;;0.75;86.61
65872;BME280;52653;50.080;21.992;2023-02-17T04:38:52;99515.71;;;0.74;86.59
65872;BME280;52653;50.080;21.992;2023-02-17T04:41:45;99514.43;;;0.72;86.44
65872;BME280;52653;50.080;21.992;2023-02-17T04:44:37;99518.66;;;0.69;86.35
65872;BME280;52653;50.080;21.992;2023-02-17T04:47:30;99523.46;;;0.68;86.42
65872;BME280;52653;50.080;21.992;2023-02-17T04:50:23;99522.63;;;0.69;86.32
65872;BME280;52653;50.080;21.992;2023-02-17T04:53:09;99522.73;;;0.72;86.18
65872;BME280;52653;50.080;21.992;2023-02-17T04:56:02;99523.26;;;0.76;86.22
65872;BME280;52653;50.080;21.992;2023-02-17T04:58:55;99523.88;;;0.79;86.03
65872;BME280;52653;50.080;21.992;2023-02-17T05:01:48;99523.57;;;0.86;86.04
65872;BME280;52653;50.080;21.992;2023-02-17T05:04:41;99523.92;;;0.95;86.05
65872;BME280;52653;50.080;21.992;2023-02-17T05:07:29;99525.83;;;1.05;85.98
65872;BME280;52653;50.080;21.992;2023-02-17T05:10:08;99525.64;;;1.14;85.85
65872;BME280;52653;50.080;21.992;2023-02-17T05:13:01;99527.52;;;1.24;85.77
65872;BME280;52653;50.080;21.992;2023-02-17T05:15:54;99528.67;;;1.32;85.70
65872;BME280;52653;50.080;21.992;2023-02-17T05:18:47;99528.04;;;1.39;85.62
65872;BME280;52653;50.080;21.992;2023-02-17T05:21:39;99528.80;;;1.41;85.54
65872;BME280;52653;50.080;21.992;2023-02-17T05:24:33;99527.19;;;1.40;85.20
65872;BME280;52653;50.080;21.992;2023-02-17T05:27:28;99527.63;;;1.38;85.16
65872;BME280;52653;50.080;21.992;2023-02-17T05:30:22;99524.28;;;1.36;85.18
65872;BME280;52653;50.080;21.992;2023-02-17T05:33:15;99522.47;;;1.33;85.12
65872;BME280;52653;50.080;21.992;2023-02-17T05:36:10;99521.89;;;1.31;85.26
65872;BME280;52653;50.080;21.992;2023-02-17T05:39:03;99517.90;;;1.31;85.27
65872;BME280;52653;50.080;21.992;2023-02-17T05:41:56;99516.36;;;1.31;85.23
65872;BME280;52653;50.080;21.992;2023-02-17T05:44:43;99519.69;;;1.32;85.35
65872;BME280;52653;50.080;21.992;2023-02-17T05:47:37;99519.73;;;1.34;85.35
65872;BME280;52653;50.080;21.992;2023-02-17T05:50:31;99522.42;;;1.37;85.28
65872;BME280;52653;50.080;21.992;2023-02-17T05:53:24;99525.19;;;1.41;85.21
65872;BME280;52653;50.080;21.992;2023-02-17T05:56:19;99520.89;;;1.48;85.48
65872;BME280;52653;50.080;21.992;2023-02-17T05:59:12;99517.35;;;1.56;85.27
65872;BME280;52653;50.080;21.992;2023-02-17T06:02:07;99516.09;;;1.64;85.04
65872;BME280;52653;50.080;21.992;2023-02-17T06:05:00;99513.05;;;1.72;84.60
65872;BME280;52653;50.080;21.992;2023-02-17T06:07:55;99511.96;;;1.81;84.53
65872;BME280;52653;50.080;21.992;2023-02-17T06:10:48;99518.13;;;1.90;84.20
65872;BME280;52653;50.080;21.992;2023-02-17T06:13:45;99514.45;;;2.00;83.99
65872;BME280;52653;50.080;21.992;2023-02-17T06:16:38;99511.33;;;2.11;83.88
65872;BME280;52653;50.080;21.992;2023-02-17T06:19:32;99508.73;;;2.22;83.64
65872;BME280;52653;50.080;21.992;2023-02-17T06:22:25;99502.20;;;2.29;83.29
65872;BME280;52653;50.080;21.992;2023-02-17T06:25:18;99504.67;;;2.37;83.27
65872;BME280;52653;50.080;21.992;2023-02-17T06:28:11;99503.64;;;2.43;83.04
65872;BME280;52653;50.080;21.992;2023-02-17T06:31:05;99501.32;;;2.46;82.97
65872;BME280;52653;50.080;21.992;2023-02-17T06:33:58;99498.59;;;2.48;82.66
65872;BME280;52653;50.080;21.992;2023-02-17T06:36:52;99499.21;;;2.52;82.32
65872;BME280;52653;50.080;21.992;2023-02-17T06:39:46;99502.05;;;2.59;82.26
65872;BME280;52653;50.080;21.992;2023-02-17T06:42:40;99497.88;;;2.71;82.09
65872;BME280;52653;50.080;21.992;2023-02-17T06:45:33;99497.59;;;2.86;81.80
65872;BME280;52653;50.080;21.992;2023-02-17T06:48:28;99495.39;;;3.00;81.25
65872;BME280;52653;50.080;21.992;2023-02-17T06:51:23;99497.55;;;3.16;81.00
65872;BME280;52653;50.080;21.992;2023-02-17T06:54:11;99490.85;;;3.32;80.69
65872;BME280;52653;50.080;21.992;2023-02-17T06:57:05;99489.02;;;3.48;80.14
65872;BME280;52653;50.080;21.992;2023-02-17T06:59:50;99485.50;;;3.61;79.53
65872;BME280;52653;50.080;21.992;2023-02-17T07:02:43;99482.99;;;3.72;79.10
65872;BME280;52653;50.080;21.992;2023-02-17T07:05:29;99483.59;;;3.82;78.72
65872;BME280;52653;50.080;21.992;2023-02-17T07:08:22;99486.02;;;3.89;78.24
65872;BME280;52653;50.080;21.992;2023-02-17T07:11:16;99479.59;;;3.97;77.80
65872;BME280;52653;50.080;21.992;2023-02-17T07:14:04;99476.77;;;4.03;77.28
65872;BME280;52653;50.080;21.992;2023-02-17T07:16:57;99470.50;;;4.08;76.86
65872;BME280;52653;50.080;21.992;2023-02-17T07:19:50;99472.23;;;4.17;76.70
65872;BME280;52653;50.080;21.992;2023-02-17T07:22:27;99476.74;;;4.24;76.22
65872;BME280;52653;50.080;21.992;2023-02-17T07:25:13;99473.52;;;4.35;75.98
65872;BME280;52653;50.080;21.992;2023-02-17T07:28:06;99474.86;;;4.50;75.60
65872;BME280;52653;50.080;21.992;2023-02-17T07:31:05;99475.36;;;4.66;75.12
65872;BME280;52653;50.080;21.992;2023-02-17T07:33:59;99471.73;;;4.85;74.76
65872;BME280;52653;50.080;21.992;2023-02-17T07:36:52;99474.33;;;5.03;74.18
65872;BME280;52653;50.080;21.992;2023-02-17T07:39:34;99473.83;;;5.13;74.03
65872;BME280;52653;50.080;21.992;2023-02-17T07:42:27;99472.35;;;5.18;73.32
65872;BME280;52653;50.080;21.992;2023-02-17T07:45:11;99474.98;;;5.19;73.04
65872;BME280;52653;50.080;21.992;2023-02-17T07:47:43;99474.98;;;5.19;72.79
65872;BME280;52653;50.080;21.992;2023-02-17T07:50:19;99472.52;;;5.19;72.72
65872;BME280;52653;50.080;21.992;2023-02-17T07:52:52;99469.56;;;5.18;72.55
65872;BME280;52653;50.080;21.992;2023-02-17T07:55:37;99465.04;;;5.18;72.54
65872;BME280;52653;50.080;21.992;2023-02-17T07:58:31;99472.39;;;5.20;72.39
65872;BME280;52653;50.080;21.992;2023-02-17T08:01:19;99478.55;;;5.23;72.52
65872;BME280;52653;50.080;21.992;2023-02-17T08:04:06;99478.27;;;5.28;72.16
65872;BME280;52653;50.080;21.992;2023-02-17T08:06:59;99476.16;;;5.37;72.28
65872;BME280;52653;50.080;21.992;2023-02-17T08:09:52;99476.35;;;5.47;71.97
65872;BME280;52653;50.080;21.992;2023-02-17T08:13:03;99475.43;;;5.56;71.69
65872;BME280;52653;50.080;21.992;2023-02-17T08:16:11;99469.79;;;5.60;71.06
65872;BME280;52653;50.080;21.992;2023-02-17T08:19:04;99471.52;;;5.60;71.09
65872;BME280;52653;50.080;21.992;2023-02-17T08:21:59;99474.14;;;5.60;70.93
65872;BME280;52653;50.080;21.992;2023-02-17T08:24:52;99473.45;;;5.61;70.95
65872;BME280;52653;50.080;21.992;2023-02-17T08:27:36;99472.95;;;5.62;70.50
65872;BME280;52653;50.080;21.992;2023-02-17T08:30:30;99468.73;;;5.60;70.53
65872;BME280;52653;50.080;21.992;2023-02-17T08:33:23;99460.92;;;5.60;70.49
65872;BME280;52653;50.080;21.992;2023-02-17T08:36:17;99461.48;;;5.64;70.54
65872;BME280;52653;50.080;21.992;2023-02-17T08:39:14;99460.21;;;5.72;70.44
65872;BME280;52653;50.080;21.992;2023-02-17T08:42:07;99458.65;;;5.83;70.22
65872;BME280;52653;50.080;21.992;2023-02-17T08:45:01;99454.95;;;5.90;69.72
65872;BME280;52653;50.080;21.992;2023-02-17T08:47:55;99455.70;;;5.94;68.89
65872;BME280;52653;50.080;21.992;2023-02-17T08:50:48;99455.21;;;5.96;68.82
65872;BME280;52653;50.080;21.992;2023-02-17T08:53:43;99448.84;;;6.00;68.67
65872;BME280;52653;50.080;21.992;2023-02-17T08:56:38;99448.00;;;6.02;69.08
65872;BME280;52653;50.080;21.992;2023-02-17T08:59:22;99446.69;;;6.08;68.85
65872;BME280;52653;50.080;21.992;2023-02-17T09:02:15;99445.21;;;6.14;68.45
65872;BME280;52653;50.080;21.992;2023-02-17T09:05:10;99447.56;;;6.21;68.09
65872;BME280;52653;50.080;21.992;2023-02-17T09:08:04;99447.94;;;6.35;67.99
65872;BME280;52653;50.080;21.992;2023-02-17T09:10:59;99451.81;;;6.54;67.73
65872;BME280;52653;50.080;21.992;2023-02-17T09:13:52;99453.91;;;6.68;67.39
65872;BME280;52653;50.080;21.992;2023-02-17T09:16:46;99453.98;;;6.74;66.98
65872;BME280;52653;50.080;21.992;2023-02-17T09:19:32;99448.75;;;6.73;66.91
65872;BME280;52653;50.080;21.992;2023-02-17T09:22:26;99446.61;;;6.71;66.64
65872;BME280;52653;50.080;21.992;2023-02-17T09:25:23;99443.90;;;6.76;67.01
65872;BME280;52653;50.080;21.992;2023-02-17T09:28:06;99438.08;;;6.85;66.87
65872;BME280;52653;50.080;21.992;2023-02-17T09:30:59;99440.85;;;6.99;66.51
65872;BME280;52653;50.080;21.992;2023-02-17T09:33:59;99437.35;;;7.18;66.52
65872;BME280;52653;50.080;21.992;2023-02-17T09:36:52;99435.61;;;7.37;65.72
65872;BME280;52653;50.080;21.992;2023-02-17T09:39:45;99436.94;;;7.48;65.36
65872;BME280;52653;50.080;21.992;2023-02-17T09:42:40;99436.48;;;7.57;65.00
65872;BME280;52653;50.080;21.992;2023-02-17T09:45:35;99431.86;;;7.70;64.67
65872;BME280;52653;50.080;21.992;2023-02-17T09:48:30;99430.41;;;7.87;64.33
65872;BME280;52653;50.080;21.992;2023-02-17T09:51:32;99426.02;;;8.09;64.61
65872;BME280;52653;50.080;21.992;2023-02-17T09:54:33;99417.71;;;8.25;63.46
65872;BME280;52653;50.080;21.992;2023-02-17T09:57:29;99421.10;;;8.35;63.03
65872;BME280;52653;50.080;21.992;2023-02-17T10:00:17;99420.73;;;8.34;62.50
65872;BME280;52653;50.080;21.992;2023-02-17T10:03:19;99421.23;;;8.30;62.31
65872;BME280;52653;50.080;21.992;2023-02-17T10:06:17;99421.05;;;8.27;62.23
65872;BME280;52653;50.080;21.992;2023-02-17T10:09:15;99416.52;;;8.28;62.23
65872;BME280;52653;50.080;21.992;2023-02-17T10:12:12;99416.35;;;8.31;62.35
65872;BME280;52653;50.080;21.992;2023-02-17T10:15:09;99407.33;;;8.42;62.59
65872;BME280;52653;50.080;21.992;2023-02-17T10:18:13;99405.46;;;8.58;62.14
65872;BME280;52653;50.080;21.992;2023-02-17T10:21:00;99398.70;;;8.73;61.61
65872;BME280;52653;50.080;21.992;2023-02-17T10:23:56;99390.35;;;8.92;61.41
65872;BME280;52653;50.080;21.992;2023-02-17T10:27:19;99380.76;;;9.12;61.10
65872;BME280;52653;50.080;21.992;2023-02-17T10:30:27;99374.29;;;9.33;60.52
65872;BME280;52653;50.080;21.992;2023-02-17T10:33:22;99369.02;;;9.52;59.98
65872;BME280;52653;50.080;21.992;2023-02-17T10:36:27;99367.25;;;9.70;59.33
65872;BME280;52653;50.080;21.992;2023-02-17T10:39:33;99365.10;;;9.86;58.92
65872;BME280;52653;50.080;21.992;2023-02-17T10:42:36;99353.89;;;9.95;58.71
65872;BME280;52653;50.080;21.992;2023-02-17T10:45:27;99349.46;;;10.00;58.93
65872;BME280;52653;50.080;21.992;2023-02-17T10:48:22;99346.86;;;10.05;58.34
65872;BME280;52653;50.080;21.992;2023-02-17T10:51:19;99351.92;;;10.07;58.70
65872;BME280;52653;50.080;21.992;2023-02-17T10:54:22;99347.70;;;10.09;58.71
65872;BME280;52653;50.080;21.992;2023-02-17T10:57:18;99339.48;;;10.07;58.50
65872;BME280;52653;50.080;21.992;2023-02-17T11:00:05;99331.07;;;10.01;58.68
65872;BME280;52653;50.080;21.992;2023-02-17T11:02:59;99334.23;;;10.02;58.99
65872;BME280;52653;50.080;21.992;2023-02-17T11:05:58;99330.70;;;10.08;59.01
65872;BME280;52653;50.080;21.992;2023-02-17T11:08:55;99323.02;;;10.06;58.62
65872;BME280;52653;50.080;21.992;2023-02-17T11:11:50;99313.17;;;10.10;59.25
65872;BME280;52653;50.080;21.992;2023-02-17T11:14:48;99305.78;;;10.21;59.41
65872;BME280;52653;50.080;21.992;2023-02-17T11:17:44;99294.39;;;10.21;58.57
65872;BME280;52653;50.080;21.992;2023-02-17T11:20:39;99287.02;;;10.22;58.70
65872;BME280;52653;50.080;21.992;2023-02-17T11:23:32;99280.37;;;10.22;58.38
65872;BME280;52653;50.080;21.992;2023-02-17T11:26:28;99270.02;;;10.17;58.16
65872;BME280;52653;50.080;21.992;2023-02-17T11:29:22;99263.02;;;10.14;58.26
65872;BME280;52653;50.080;21.992;2023-02-17T11:32:14;99256.53;;;10.15;58.75
65872;BME280;52653;50.080;21.992;2023-02-17T11:35:21;99249.17;;;10.17;58.27
65872;BME280;52653;50.080;21.992;2023-02-17T11:38:20;99250.77;;;10.13;58.22
65872;BME280;52653;50.080;21.992;2023-02-17T11:41:07;99252.89;;;10.09;58.26
65872;BME280;52653;50.080;21.992;2023-02-17T11:44:03;99248.70;;;10.07;58.66
65872;BME280;52653;50.080;21.992;2023-02-17T11:47:07;99239.06;;;10.08;58.78
65872;BME280;52653;50.080;21.992;2023-02-17T11:50:07;99233.09;;;10.10;58.76
65872;BME280;52653;50.080;21.992;2023-02-17T11:53:06;99237.67;;;10.05;58.71
65872;BME280;52653;50.080;21.992;2023-02-17T11:56:03;99227.89;;;9.98;58.88
65872;BME280;52653;50.080;21.992;2023-02-17T11:59:10;99230.37;;;9.90;59.40
65872;BME280;52653;50.080;21.992;2023-02-17T12:02:08;99232.18;;;9.81;59.86
65872;BME280;52653;50.080;21.992;2023-02-17T12:05:09;99230.29;;;9.70;60.32
65872;BME280;52653;50.080;21.992;2023-02-17T12:08:14;99235.59;;;9.54;60.67
65872;BME280;52653;50.080;21.992;2023-02-17T12:11:21;99232.48;;;9.40;61.46
65872;BME280;52653;50.080;21.992;2023-02-17T12:14:40;99228.66;;;9.28;61.83
65872;BME280;52653;50.080;21.992;2023-02-17T12:17:49;99223.27;;;9.18;62.21
65872;BME280;52653;50.080;21.992;2023-02-17T12:20:53;99223.46;;;9.03;62.50
65872;BME280;52653;50.080;21.992;2023-02-17T12:23:51;99224.35;;;8.88;63.00
65872;BME280;52653;50.080;21.992;2023-02-17T12:26:52;99219.98;;;8.69;63.38
65872;BME280;52653;50.080;21.992;2023-02-17T12:29:58;99218.41;;;8.55;64.35
65872;BME280;52653;50.080;21.992;2023-02-17T12:32:54;99212.80;;;8.40;65.64
65872;BME280;52653;50.080;21.992;2023-02-17T12:35:41;99212.05;;;8.27;66.87
65872;BME280;52653;50.080;21.992;2023-02-17T12:38:32;99210.27;;;8.13;67.88
65872;BME280;52653;50.080;21.992;2023-02-17T12:41:11;99207.80;;;8.01;68.59
65872;BME280;52653;50.080;21.992;2023-02-17T12:44:11;99201.51;;;7.95;69.23
65872;BME280;52653;50.080;21.992;2023-02-17T12:47:11;99198.17;;;7.89;70.06
65872;BME280;52653;50.080;21.992;2023-02-17T12:50:00;99196.23;;;7.83;70.57
65872;BME280;52653;50.080;21.992;2023-02-17T12:52:38;99190.45;;;7.74;70.67
65872;BME280;52653;50.080;21.992;2023-02-17T12:55:17;99182.89;;;7.61;71.06
65872;BME280;52653;50.080;21.992;2023-02-17T12:57:54;99181.79;;;7.48;71.74
65872;BME280;52653;50.080;21.992;2023-02-17T13:00:33;99176.52;;;7.36;72.24
65872;BME280;52653;50.080;21.992;2023-02-17T13:03:08;99173.16;;;7.29;72.85
65872;BME280;52653;50.080;21.992;2023-02-17T13:05:45;99167.73;;;7.26;73.24
65872;BME280;52653;50.080;21.992;2023-02-17T13:08:23;99166.69;;;7.25;73.46
65872;BME280;52653;50.080;21.992;2023-02-17T13:11:04;99162.17;;;7.31;73.57
65872;BME280;52653;50.080;21.992;2023-02-17T13:13:40;99157.70;;;7.46;73.41
65872;BME280;52653;50.080;21.992;2023-02-17T13:16:16;99150.59;;;7.59;73.23
65872;BME280;52653;50.080;21.992;2023-02-17T13:18:50;99149.06;;;7.74;72.96
65872;BME280;52653;50.080;21.992;2023-02-17T13:21:33;99142.27;;;7.79;72.20
65872;BME280;52653;50.080;21.992;2023-02-17T13:24:12;99140.89;;;7.85;72.15
65872;BME280;52653;50.080;21.992;2023-02-17T13:26:46;99136.69;;;7.86;71.93
65872;BME280;52653;50.080;21.992;2023-02-17T13:29:34;99138.44;;;7.81;71.69
65872;BME280;52653;50.080;21.992;2023-02-17T13:32:10;99136.51;;;7.76;71.81
65872;BME280;52653;50.080;21.992;2023-02-17T13:35:02;99138.73;;;7.62;71.60
65872;BME280;52653;50.080;21.992;2023-02-17T13:37:43;99135.71;;;7.46;71.72
65872;BME280;52653;50.080;21.992;2023-02-17T13:40:36;99135.84;;;7.31;72.22
65872;BME280;52653;50.080;21.992;2023-02-17T13:43:22;99137.70;;;7.21;72.61
65872;BME280;52653;50.080;21.992;2023-02-17T13:46:19;99140.64;;;7.13;72.97
65872;BME280;52653;50.080;21.992;2023-02-17T13:49:20;99136.06;;;7.06;73.48
65872;BME280;52653;50.080;21.992;2023-02-17T13:52:17;99136.05;;;7.00;73.57
65872;BME280;52653;50.080;21.992;2023-02-17T13:55:16;99132.16;;;6.95;73.66
65872;BME280;52653;50.080;21.992;2023-02-17T13:58:11;99131.27;;;6.90;73.95
65872;BME280;52653;50.080;21.992;2023-02-17T14:00:54;99122.20;;;6.88;74.15
65872;BME280;52653;50.080;21.992;2023-02-17T14:03:46;99121.14;;;6.85;74.21
65872;BME280;52653;50.080;21.992;2023-02-17T14:06:43;99117.44;;;6.77;74.31
65872;BME280;52653;50.080;21.992;2023-02-17T14:09:28;99112.55;;;6.75;74.42
65872;BME280;52653;50.080;21.992;2023-02-17T14:12:16;99107.96;;;6.70;74.27
65872;BME280;52653;50.080;21.992;2023-02-17T14:15:03;99106.19;;;6.63;74.26
65872;BME280;52653;50.080;21.992;2023-02-17T14:17:47;99102.30;;;6.56;74.48
65872;BME280;52653;50.080;21.992;2023-02-17T14:20:25;99098.06;;;6.48;74.66
65872;BME280;52653;50.080;21.992;2023-02-17T14:23:08;99096.80;;;6.40;74.93
65872;BME280;52653;50.080;21.992;2023-02-17T14:25:42;99092.08;;;6.37;75.13
65872;BME280;52653;50.080;21.992;2023-02-17T14:28:25;99086.96;;;6.30;75.34
65872;BME280;52653;50.080;21.992;2023-02-17T14:31:06;99083.28;;;6.25;75.49
65872;BME280;52653;50.080;21.992;2023-02-17T14:33:54;99073.83;;;6.21;75.67
65872;BME280;52653;50.080;21.992;2023-02-17T14:36:30;99069.63;;;6.18;75.78
65872;BME280;52653;50.080;21.992;2023-02-17T14:39:21;99064.59;;;6.20;76.04
65872;BME280;52653;50.080;21.992;2023-02-17T14:41:52;99060.42;;;6.22;76.02
65872;BME280;52653;50.080;21.992;2023-02-17T14:44:42;99055.22;;;6.23;76.10
65872;BME280;52653;50.080;21.992;2023-02-17T14:47:34;99054.02;;;6.24;76.13
65872;BME280;52653;50.080;21.992;2023-02-17T14:50:15;99047.21;;;6.23;76.19
65872;BME280;52653;50.080;21.992;2023-02-17T14:53:10;99049.27;;;6.21;76.24
65872;BME280;52653;50.080;21.992;2023-02-17T14:55:49;99050.83;;;6.18;76.35
65872;BME280;52653;50.080;21.992;2023-02-17T14:58:40;99048.89;;;6.14;76.44
65872;BME280;52653;50.080;21.992;2023-02-17T15:01:30;99050.92;;;6.08;76.52
65872;BME280;52653;50.080;21.992;2023-02-17T15:04:22;99046.33;;;5.99;76.91
65872;BME280;52653;50.080;21.992;2023-02-17T15:06:57;99041.73;;;5.91;76.84
65872;BME280;52653;50.080;21.992;2023-02-17T15:09:31;99040.42;;;5.82;77.15
65872;BME280;52653;50.080;21.992;2023-02-17T15:12:10;99042.63;;;5.75;77.31
65872;BME280;52653;50.080;21.992;2023-02-17T15:15:08;99034.88;;;5.68;77.68
65872;BME280;52653;50.080;21.992;2023-02-17T15:17:42;99032.24;;;5.61;77.78
65872;BME280;52653;50.080;21.992;2023-02-17T15:20:21;99028.73;;;5.59;77.99